createdAt,value
2018-06-22T00:01:21.164Z,2.63
2018-06-22T00:03:49.595Z,2.97
2018-06-22T00:06:18.020Z,2.53
2018-06-22T00:08:46.480Z,2.53
2018-06-22T00:11:14.876Z,2.80
2018-06-22T00:13:43.249Z,2.23
2018-06-22T00:16:11.733Z,2.33
2018-06-22T00:18:40.237Z,2.67
2018-06-22T00:21:10.416Z,2.87
2018-06-22T00:23:38.901Z,2.03
2018-06-22T00:26:07.318Z,3.10
2018-06-22T00:28:35.784Z,2.20
2018-06-22T00:31:04.465Z,3.40
2018-06-22T00:33:32.942Z,3.20
2018-06-22T00:36:01.330Z,2.93
2018-06-22T00:38:29.915Z,2.23
2018-06-22T00:40:58.477Z,2.33
2018-06-22T00:43:26.864Z,2.07
2018-06-22T00:45:55.326Z,3.13
2018-06-22T00:48:23.824Z,3.00
2018-06-22T00:50:52.330Z,3.60
2018-06-22T00:53:32.082Z,2.03
2018-06-22T00:56:00.534Z,2.13
2018-06-22T00:58:29.057Z,2.07
2018-06-22T01:00:57.764Z,2.57
2018-06-22T01:03:26.290Z,1.87
2018-06-22T01:05:54.800Z,2.33
2018-06-22T01:08:23.413Z,2.13
2018-06-22T01:10:51.805Z,2.13
2018-06-22T01:13:20.301Z,1.90
2018-06-22T01:15:48.819Z,2.00
2018-06-22T01:18:17.326Z,2.87
2018-06-22T01:20:45.739Z,1.83
2018-06-22T01:23:14.197Z,3.17
2018-06-22T01:25:42.744Z,2.47
2018-06-22T01:28:11.231Z,2.67
2018-06-22T01:30:39.621Z,2.93
2018-06-22T01:33:08.309Z,2.77
2018-06-22T01:35:36.813Z,2.47
2018-06-22T01:38:05.195Z,2.03
2018-06-22T01:40:33.676Z,2.40
2018-06-22T01:43:02.162Z,2.40
2018-06-22T01:45:30.571Z,2.00
2018-06-22T01:47:59.944Z,2.43
2018-06-22T01:50:31.612Z,2.93
2018-06-22T01:53:00.017Z,2.83
2018-06-22T01:55:28.412Z,2.47
2018-06-22T01:57:57.057Z,2.43
2018-06-22T02:00:26.225Z,2.10
2018-06-22T02:02:54.627Z,2.10
2018-06-22T02:05:23.089Z,2.17
2018-06-22T02:07:51.510Z,2.50
2018-06-22T02:10:20.542Z,3.67
2018-06-22T02:12:48.966Z,2.37
2018-06-22T02:15:17.439Z,2.37
2018-06-22T02:17:46.012Z,2.40
2018-06-22T02:20:14.500Z,2.00
2018-06-22T02:22:42.888Z,2.07
2018-06-22T02:25:11.349Z,2.20
2018-06-22T02:27:39.738Z,3.00
2018-06-22T02:30:09.329Z,2.83
2018-06-22T02:32:37.864Z,2.50
2018-06-22T02:35:06.374Z,2.97
2018-06-22T02:37:34.836Z,2.37
2018-06-22T02:40:03.336Z,3.53
2018-06-22T02:42:31.744Z,2.93
2018-06-22T02:45:00.232Z,2.03
2018-06-22T02:47:29.581Z,4.00
2018-06-22T02:49:58.813Z,2.53
2018-06-22T02:52:27.196Z,4.10
2018-06-22T02:54:55.577Z,2.90
2018-06-22T02:57:23.998Z,2.77
2018-06-22T02:59:52.504Z,3.20
2018-06-22T03:02:20.889Z,2.57
2018-06-22T03:04:49.375Z,2.00
2018-06-22T03:07:18.200Z,2.80
2018-06-22T03:09:46.688Z,2.40
2018-06-22T03:12:15.072Z,2.20
2018-06-22T03:14:43.485Z,2.30
2018-06-22T03:17:11.910Z,2.20
2018-06-22T03:19:40.399Z,2.27
2018-06-22T03:22:08.881Z,3.33
2018-06-22T03:24:37.245Z,3.20
2018-06-22T03:27:05.704Z,2.23
2018-06-22T03:29:34.203Z,2.90
2018-06-22T03:32:02.633Z,2.27
2018-06-22T03:34:31.042Z,3.00
2018-06-22T03:36:59.612Z,2.30
2018-06-22T03:39:28.086Z,3.30
2018-06-22T03:41:56.489Z,2.53
2018-06-22T03:44:24.948Z,2.70
2018-06-22T03:46:53.419Z,3.20
2018-06-22T03:49:21.889Z,3.23
2018-06-22T03:51:50.344Z,2.20
2018-06-22T03:54:18.854Z,2.37
2018-06-22T03:56:47.383Z,1.67
2018-06-22T03:59:15.909Z,2.53
2018-06-22T04:01:44.379Z,3.07
2018-06-22T04:04:12.808Z,2.73
2018-06-22T04:06:41.276Z,2.30
2018-06-22T04:09:09.781Z,3.60
2018-06-22T04:11:39.542Z,3.23
2018-06-22T04:14:09.028Z,2.77
2018-06-22T04:16:37.824Z,3.37
2018-06-22T04:19:07.357Z,3.13
2018-06-22T04:21:35.844Z,2.67
2018-06-22T04:24:04.281Z,2.77
2018-06-22T04:26:32.757Z,2.93
2018-06-22T04:29:01.254Z,3.07
2018-06-22T04:31:29.736Z,4.10
2018-06-22T04:33:58.984Z,3.57
2018-06-22T04:36:27.412Z,3.40
2018-06-22T04:38:55.845Z,4.00
2018-06-22T04:41:24.481Z,3.33
2018-06-22T04:43:52.889Z,3.27
2018-06-22T04:46:21.408Z,4.43
2018-06-22T04:48:49.804Z,5.03
2018-06-22T04:51:18.337Z,3.53
2018-06-22T04:53:46.936Z,3.73
2018-06-22T04:56:15.347Z,3.97
2018-06-22T04:58:43.780Z,3.00
2018-06-22T05:01:12.998Z,3.67
2018-06-22T05:03:41.507Z,4.17
2018-06-22T05:06:09.922Z,3.57
2018-06-22T05:08:38.336Z,5.20
2018-06-22T05:11:06.822Z,2.83
2018-06-22T05:13:35.306Z,4.50
2018-06-22T05:16:04.527Z,3.70
2018-06-22T05:18:32.996Z,4.33
2018-06-22T05:21:01.469Z,3.43
2018-06-22T05:23:29.888Z,3.47
2018-06-22T05:25:58.276Z,3.87
2018-06-22T05:28:27.590Z,3.93
2018-06-22T05:30:56.106Z,2.60
2018-06-22T05:33:24.492Z,3.23
2018-06-22T05:35:52.923Z,3.23
2018-06-22T05:38:22.162Z,4.57
2018-06-22T05:40:50.560Z,4.10
2018-06-22T05:43:19.148Z,4.03
2018-06-22T05:45:47.548Z,6.37
2018-06-22T05:48:16.030Z,3.87
2018-06-22T05:50:44.526Z,4.23
2018-06-22T05:53:13.045Z,3.37
2018-06-22T05:55:41.535Z,3.83
2018-06-22T05:58:10.006Z,3.47
2018-06-22T06:00:38.420Z,3.77
2018-06-22T06:03:06.903Z,4.77
2018-06-22T06:05:35.438Z,4.60
2018-06-22T06:08:03.993Z,3.47
2018-06-22T06:10:32.384Z,3.70
2018-06-22T06:13:01.409Z,3.93
2018-06-22T06:15:29.804Z,4.40
2018-06-22T06:17:58.195Z,2.83
2018-06-22T06:20:26.677Z,4.97
2018-06-22T06:22:55.175Z,3.80
2018-06-22T06:25:23.649Z,4.13
2018-06-22T06:27:52.240Z,3.93
2018-06-22T06:30:25.858Z,3.13
2018-06-22T06:32:54.334Z,4.37
2018-06-22T06:35:22.729Z,5.27
2018-06-22T06:37:51.212Z,4.23
2018-06-22T06:40:19.640Z,4.57
2018-06-22T06:42:48.268Z,4.67
2018-06-22T06:45:16.660Z,4.70
2018-06-22T06:47:45.145Z,3.43
2018-06-22T06:50:13.574Z,4.07
2018-06-22T06:52:42.208Z,3.23
2018-06-22T06:55:10.706Z,3.30
2018-06-22T06:57:39.341Z,3.37
2018-06-22T07:00:08.257Z,3.07
2018-06-22T07:02:36.770Z,3.47
2018-06-22T07:05:05.445Z,3.17
2018-06-22T07:07:33.851Z,3.30
2018-06-22T07:10:02.269Z,4.37
2018-06-22T07:12:30.744Z,4.17
2018-06-22T07:14:59.146Z,4.13
2018-06-22T07:17:27.540Z,3.10
2018-06-22T07:19:55.960Z,3.93
2018-06-22T07:22:24.536Z,3.67
2018-06-22T07:24:52.953Z,3.70
2018-06-22T07:27:21.345Z,2.67
2018-06-22T07:29:49.756Z,3.10
2018-06-22T07:32:19.017Z,3.50
2018-06-22T07:34:47.785Z,3.53
2018-06-22T07:37:16.172Z,3.60
2018-06-22T07:39:44.561Z,2.70
2018-06-22T07:42:14.181Z,2.77
2018-06-22T07:44:43.143Z,2.03
2018-06-22T07:47:11.572Z,3.93
2018-06-22T07:49:39.952Z,2.53
2018-06-22T07:52:08.605Z,3.37
2018-06-22T07:54:37.286Z,2.83
2018-06-22T07:57:08.816Z,3.77
2018-06-22T07:59:37.218Z,2.53
2018-06-22T08:02:05.631Z,2.80
2018-06-22T08:04:34.372Z,3.17
2018-06-22T08:07:02.844Z,3.13
2018-06-22T08:09:31.249Z,2.70
2018-06-22T08:11:59.653Z,3.07
2018-06-22T08:14:28.137Z,1.87
2018-06-22T08:16:56.587Z,3.27
2018-06-22T08:19:24.928Z,2.40
2018-06-22T08:21:53.464Z,3.03
2018-06-22T08:24:21.944Z,2.80
2018-06-22T08:26:50.360Z,3.30
2018-06-22T08:29:18.745Z,3.20
2018-06-22T08:31:47.112Z,2.73
2018-06-22T08:34:16.212Z,2.97
2018-06-22T08:36:44.671Z,2.30
2018-06-22T08:39:13.071Z,2.33
2018-06-22T08:41:41.705Z,2.03
2018-06-22T08:44:10.682Z,1.93
2018-06-22T08:46:39.057Z,2.33
2018-06-22T08:49:07.512Z,2.27
2018-06-22T08:51:35.920Z,3.03
2018-06-22T08:54:05.176Z,3.23
2018-06-22T08:56:33.550Z,2.27
2018-06-22T08:59:01.930Z,3.10
2018-06-22T09:01:30.343Z,3.43
2018-06-22T09:03:58.836Z,2.13
2018-06-22T09:06:27.511Z,2.93
2018-06-22T09:08:55.919Z,2.50
2018-06-22T09:11:24.332Z,2.77
2018-06-22T09:13:52.813Z,2.60
2018-06-22T09:16:21.228Z,4.10
2018-06-22T09:18:49.616Z,3.80
2018-06-22T09:21:18.062Z,3.67
2018-06-22T09:23:47.517Z,5.07
2018-06-22T09:26:16.043Z,3.23
2018-06-22T09:28:44.395Z,3.30
2018-06-22T09:31:12.847Z,2.93
2018-06-22T09:33:41.348Z,2.40
2018-06-22T09:36:09.828Z,2.60
2018-06-22T09:38:38.212Z,2.20
2018-06-22T09:41:06.711Z,2.30
2018-06-22T09:43:35.129Z,2.87
2018-06-22T09:46:03.624Z,2.87
2018-06-22T09:48:31.992Z,2.40
2018-06-22T09:51:00.438Z,2.50
2018-06-22T09:53:28.900Z,2.23
2018-06-22T09:55:57.377Z,1.90
2018-06-22T09:58:25.761Z,2.23
2018-06-22T10:00:54.163Z,2.57
2018-06-22T10:03:24.352Z,2.00
2018-06-22T10:05:52.917Z,3.23
2018-06-22T10:08:21.475Z,2.90
2018-06-22T10:10:49.837Z,2.50
2018-06-22T10:13:18.237Z,2.20
2018-06-22T10:15:54.027Z,2.10
2018-06-22T10:18:23.609Z,1.57
2018-06-22T10:20:52.137Z,2.20
2018-06-22T10:23:20.557Z,2.57
2018-06-22T10:25:49.305Z,2.57
2018-06-22T10:28:17.934Z,1.80
2018-06-22T10:30:46.423Z,1.67
2018-06-22T10:33:16.829Z,1.20
2018-06-22T10:35:45.308Z,2.13
2018-06-22T10:38:13.689Z,2.77
2018-06-22T10:40:42.133Z,2.40
2018-06-22T10:43:10.622Z,2.07
2018-06-22T10:45:39.243Z,1.83
2018-06-22T10:48:07.606Z,1.83
2018-06-22T10:50:36.216Z,2.10
2018-06-22T10:53:04.625Z,1.53
2018-06-22T10:55:33.112Z,2.50
2018-06-22T10:58:01.498Z,1.50
2018-06-22T11:00:31.514Z,1.57
2018-06-22T11:02:59.919Z,1.27
2018-06-22T11:05:28.389Z,2.03
2018-06-22T11:07:56.782Z,2.13
2018-06-22T11:10:25.221Z,2.33
2018-06-22T11:12:53.618Z,1.90
2018-06-22T11:15:22.165Z,2.20
2018-06-22T11:17:50.553Z,2.33
2018-06-22T11:20:18.927Z,2.00
2018-06-22T11:22:47.337Z,1.93
2018-06-22T11:25:15.915Z,1.87
2018-06-22T11:27:44.324Z,2.30
2018-06-22T11:30:12.721Z,1.43
2018-06-22T11:32:41.135Z,2.50
2018-06-22T11:35:09.727Z,2.80
2018-06-22T11:37:38.164Z,1.60
2018-06-22T11:40:06.537Z,1.17
2018-06-22T11:42:34.904Z,1.80
2018-06-22T11:45:03.544Z,2.33
2018-06-22T11:47:32.034Z,1.43
2018-06-22T11:50:00.941Z,1.87
2018-06-22T11:52:29.332Z,2.67
2018-06-22T11:54:57.711Z,3.10
2018-06-22T11:57:26.406Z,3.13
2018-06-22T11:59:54.780Z,3.77
2018-06-22T12:02:23.165Z,3.90
2018-06-22T12:04:51.609Z,3.57
2018-06-22T12:07:20.108Z,4.20
2018-06-22T12:09:48.504Z,3.73
2018-06-22T12:12:16.960Z,3.90
2018-06-22T12:14:46.545Z,4.20
2018-06-22T12:17:15.030Z,1.13
2018-06-22T12:19:43.532Z,1.07
2018-06-22T12:22:12.007Z,1.10
2018-06-22T12:24:40.397Z,1.23
2018-06-22T12:27:08.912Z,1.00
2018-06-22T12:29:37.297Z,1.47
2018-06-22T12:32:05.711Z,1.33
2018-06-22T12:34:34.130Z,0.60
2018-06-22T12:37:02.614Z,1.90
2018-06-22T12:39:31.000Z,2.37
2018-06-22T12:41:59.465Z,1.30
2018-06-22T12:44:27.968Z,0.93
2018-06-22T12:46:56.612Z,1.60
2018-06-22T12:49:25.005Z,1.93
2018-06-22T12:51:53.473Z,2.27
2018-06-22T12:54:21.884Z,1.77
2018-06-22T12:56:50.444Z,1.43
2018-06-22T12:59:18.821Z,1.40
2018-06-22T13:01:47.214Z,1.87
2018-06-22T13:04:16.279Z,1.40
2018-06-22T13:06:45.409Z,1.10
2018-06-22T13:09:14.065Z,1.77
2018-06-22T13:11:42.576Z,1.40
2018-06-22T13:14:10.951Z,1.77
2018-06-22T13:16:39.459Z,2.00
2018-06-22T13:19:07.928Z,2.50
2018-06-22T13:21:50.487Z,1.60
2018-06-22T13:24:19.753Z,2.63
2018-06-22T13:26:48.229Z,2.07
2018-06-22T13:29:16.650Z,2.97
2018-06-22T13:31:45.187Z,1.73
2018-06-22T13:34:14.939Z,1.53
2018-06-22T13:36:44.784Z,1.33
2018-06-22T13:39:15.112Z,2.30
2018-06-22T13:41:43.837Z,2.33
2018-06-22T13:44:12.269Z,2.97
2018-06-22T13:46:41.853Z,2.13
2018-06-22T13:49:10.932Z,1.87
2018-06-22T13:51:40.443Z,1.90
2018-06-22T13:54:09.369Z,1.37
2018-06-22T13:56:38.378Z,2.40
2018-06-22T13:59:07.857Z,2.07
2018-06-22T14:01:36.669Z,2.97
2018-06-22T14:04:10.381Z,2.07
2018-06-22T14:06:44.009Z,1.87
2018-06-22T14:09:14.769Z,1.50
2018-06-22T14:11:43.877Z,1.30
2018-06-22T14:14:12.334Z,2.13
2018-06-22T14:16:41.560Z,1.60
2018-06-22T14:19:10.283Z,1.67
2018-06-22T14:21:38.709Z,2.30
2018-06-22T14:24:08.594Z,1.77
2018-06-22T14:26:37.273Z,1.80
2018-06-22T14:29:05.980Z,3.37
2018-06-22T14:31:34.486Z,2.87
2018-06-22T14:34:04.669Z,1.47
2018-06-22T14:36:33.070Z,3.53
2018-06-22T14:39:01.742Z,1.83
2018-06-22T14:41:30.156Z,2.40
2018-06-22T14:43:58.552Z,1.80
2018-06-22T14:46:27.070Z,2.40
2018-06-22T14:48:55.568Z,1.67
2018-06-22T14:51:24.794Z,1.40
2018-06-22T14:53:58.974Z,1.43
2018-06-22T14:56:32.721Z,1.40
2018-06-22T14:59:06.562Z,1.20
2018-06-22T15:01:40.189Z,1.30
2018-06-22T15:04:14.014Z,1.47
2018-06-22T15:06:47.744Z,1.30
2018-06-22T15:09:16.838Z,1.43
2018-06-22T15:11:45.213Z,1.83
2018-06-22T15:14:13.599Z,1.00
2018-06-22T15:16:43.608Z,1.20
2018-06-22T15:19:12.258Z,1.23
2018-06-22T15:21:40.665Z,0.80
2018-06-22T15:24:09.077Z,1.97
2018-06-22T15:26:38.325Z,1.30
2018-06-22T15:29:06.813Z,1.30
2018-06-22T15:31:35.465Z,1.27
2018-06-22T15:34:09.213Z,2.03
2018-06-22T15:36:43.021Z,1.80
2018-06-22T15:39:16.862Z,2.17
2018-06-22T15:41:50.502Z,2.27
2018-06-22T15:44:24.960Z,1.57
2018-06-22T15:48:01.657Z,1.67
2018-06-22T15:50:35.497Z,2.00
2018-06-22T15:53:09.206Z,1.67
2018-06-22T15:55:41.392Z,2.77
2018-06-22T15:58:09.944Z,1.90
2018-06-22T16:00:39.628Z,2.13
2018-06-22T16:03:13.364Z,2.73
2018-06-22T16:05:42.069Z,2.40
2018-06-22T16:08:10.480Z,2.57
2018-06-22T16:10:40.824Z,1.90
2018-06-22T16:13:14.704Z,1.70
2018-06-22T16:15:48.405Z,1.50
2018-06-22T16:18:22.164Z,1.37
2018-06-22T16:20:55.953Z,1.83
2018-06-22T16:23:29.702Z,2.00
2018-06-22T16:26:03.248Z,2.07
2018-06-22T16:28:31.724Z,2.30
2018-06-22T16:31:00.241Z,2.10
2018-06-22T16:33:28.642Z,2.17
2018-06-22T16:35:57.094Z,2.33
2018-06-22T16:38:25.563Z,3.17
2018-06-22T16:40:54.311Z,1.83
2018-06-22T16:43:22.809Z,2.17
2018-06-22T16:45:51.295Z,1.30
2018-06-22T16:48:20.634Z,1.43
2018-06-22T16:50:49.098Z,1.90
2018-06-22T16:53:17.461Z,1.30
2018-06-22T16:55:45.876Z,3.23
2018-06-22T16:58:19.513Z,1.97
2018-06-22T17:00:47.993Z,1.67
2018-06-22T17:03:16.378Z,2.30
2018-06-22T17:05:44.810Z,1.40
2018-06-22T17:08:18.532Z,1.77
2018-06-22T17:10:53.190Z,2.07
2018-06-22T17:13:26.683Z,2.83
2018-06-22T17:16:00.480Z,1.47
2018-06-22T17:18:34.114Z,2.30
2018-06-22T17:21:02.633Z,1.67
2018-06-22T17:23:31.033Z,1.80
2018-06-22T17:25:59.449Z,1.70
2018-06-22T17:28:27.825Z,1.37
2018-06-22T17:30:56.453Z,1.77
2018-06-22T17:33:26.013Z,1.67
2018-06-22T17:35:54.420Z,2.03
2018-06-22T17:38:22.849Z,2.17
2018-06-22T17:40:51.581Z,1.93
2018-06-22T17:43:20.161Z,1.70
2018-06-22T17:45:48.572Z,1.67
2018-06-22T17:48:16.945Z,2.00
2018-06-22T17:50:45.668Z,2.20
2018-06-22T17:53:14.049Z,2.77
2018-06-22T17:55:42.430Z,2.33
2018-06-22T17:58:10.930Z,1.73
2018-06-22T18:00:50.689Z,1.93
2018-06-22T18:04:26.345Z,1.53
2018-06-22T18:07:00.613Z,2.27
2018-06-22T18:09:34.120Z,2.53
2018-06-22T18:12:07.843Z,2.17
2018-06-22T18:14:36.231Z,1.97
2018-06-22T18:17:04.625Z,2.57
2018-06-22T18:19:34.066Z,2.13
2018-06-22T18:22:02.516Z,1.60
2018-06-22T18:24:30.885Z,1.30
2018-06-22T18:26:59.264Z,2.50
2018-06-22T18:29:28.133Z,1.80
2018-06-22T18:31:57.398Z,2.10
2018-06-22T18:34:25.897Z,1.87
2018-06-22T18:36:54.430Z,1.83
2018-06-22T18:39:22.949Z,1.90
2018-06-22T18:41:51.640Z,1.67
2018-06-22T18:44:20.040Z,2.17
2018-06-22T18:46:48.429Z,2.60
2018-06-22T18:49:17.727Z,1.30
2018-06-22T18:51:46.474Z,1.60
2018-06-22T18:54:20.036Z,1.60
2018-06-22T18:56:53.588Z,1.60
2018-06-22T18:59:27.368Z,2.37
2018-06-22T19:02:01.203Z,1.90
2018-06-22T19:04:29.592Z,1.80
2018-06-22T19:06:57.997Z,1.67
2018-06-22T19:09:26.677Z,2.27
2018-06-22T19:11:55.144Z,2.13
2018-06-22T19:14:23.534Z,1.67
2018-06-22T19:16:52.057Z,2.00
2018-06-22T19:19:20.524Z,2.30
2018-06-22T19:21:49.006Z,2.07
2018-06-22T19:24:17.421Z,1.83
2018-06-22T19:26:45.843Z,1.70
2018-06-22T19:29:14.237Z,1.67
2018-06-22T19:31:42.727Z,1.77
2018-06-22T19:34:11.145Z,1.80
2018-06-22T19:36:39.561Z,2.23
2018-06-22T19:39:09.227Z,1.70
2018-06-22T19:41:38.584Z,2.17
2018-06-22T19:44:12.159Z,1.83
2018-06-22T19:46:45.811Z,1.53
2018-06-22T19:49:19.467Z,2.60
2018-06-22T19:51:53.531Z,2.98
2018-06-22T19:54:21.904Z,2.33
2018-06-22T19:56:50.285Z,2.23
2018-06-22T19:59:19.565Z,2.03
2018-06-22T20:01:49.436Z,1.87
2018-06-22T20:04:17.816Z,2.47
2018-06-22T20:06:46.201Z,1.97
2018-06-22T20:09:14.633Z,2.00
2018-06-22T20:11:43.413Z,1.90
2018-06-22T20:14:11.889Z,1.97
2018-06-22T20:16:40.309Z,2.83
2018-06-22T20:19:08.791Z,2.70
2018-06-22T20:21:38.577Z,2.13
2018-06-22T20:24:07.156Z,2.67
2018-06-22T20:26:35.720Z,2.10
2018-06-22T20:29:04.132Z,2.33
2018-06-22T20:31:37.897Z,2.67
2018-06-22T20:34:12.415Z,2.43
2018-06-22T20:36:45.877Z,2.10
2018-06-22T20:39:19.568Z,2.63
2018-06-22T20:41:53.432Z,2.43
2018-06-22T20:44:27.126Z,3.07
2018-06-22T20:48:03.132Z,3.07
2018-06-22T20:50:39.922Z,2.67
2018-06-22T20:53:09.016Z,3.00
2018-06-22T20:55:37.402Z,2.97
2018-06-22T20:58:05.786Z,3.37
2018-06-22T21:00:39.956Z,3.40
2018-06-22T21:03:08.917Z,3.37
2018-06-22T21:05:37.294Z,3.23
2018-06-22T21:08:05.980Z,3.63
2018-06-22T21:10:34.432Z,2.67
2018-06-22T21:13:03.335Z,4.03
2018-06-22T21:15:31.762Z,3.80
2018-06-22T21:18:00.154Z,3.23
2018-06-22T21:20:28.600Z,3.47
2018-06-22T21:22:57.392Z,2.90
2018-06-22T21:25:25.926Z,3.80
2018-06-22T21:27:59.650Z,2.93
2018-06-22T21:30:34.568Z,3.57
2018-06-22T21:33:08.377Z,2.90
2018-06-22T21:35:42.147Z,3.60
2018-06-22T21:38:15.878Z,3.07
2018-06-22T21:40:44.330Z,4.27
2018-06-22T21:43:13.643Z,3.30
2018-06-22T21:45:42.021Z,2.77
2018-06-22T21:48:10.507Z,4.00
2018-06-22T21:50:38.869Z,3.93
2018-06-22T21:53:07.452Z,3.67
2018-06-22T21:55:35.872Z,3.47
2018-06-22T21:58:05.098Z,3.73
2018-06-22T22:00:41.784Z,3.73
2018-06-22T22:03:10.282Z,2.60
2018-06-22T22:05:38.882Z,4.80
2018-06-22T22:08:08.379Z,3.03
2018-06-22T22:10:42.017Z,3.27
2018-06-22T22:13:10.521Z,3.43
2018-06-22T22:15:38.892Z,4.13
2018-06-22T22:18:07.317Z,3.33
2018-06-22T22:20:35.696Z,3.30
2018-06-22T22:23:04.179Z,3.87
2018-06-22T22:25:32.563Z,3.67
2018-06-22T22:28:01.835Z,3.10
2018-06-22T22:30:39.245Z,3.27
2018-06-22T22:33:07.728Z,3.63
2018-06-22T22:35:36.117Z,3.47
2018-06-22T22:38:05.956Z,4.53
2018-06-22T22:40:34.369Z,4.07
2018-06-22T22:43:02.850Z,3.90
2018-06-22T22:45:31.406Z,3.30
2018-06-22T22:48:00.836Z,4.43
2018-06-22T22:50:29.287Z,3.80
2018-06-22T22:52:57.756Z,4.03
2018-06-22T22:55:26.560Z,3.80
2018-06-22T22:57:55.489Z,3.90
2018-06-22T23:00:29.246Z,4.00
2018-06-22T23:02:57.785Z,3.07
2018-06-22T23:05:26.233Z,3.57
2018-06-22T23:07:54.690Z,4.13
2018-06-22T23:10:23.116Z,3.33
2018-06-22T23:12:51.598Z,4.53
2018-06-22T23:15:20.035Z,3.87
2018-06-22T23:17:48.641Z,3.23
2018-06-22T23:20:17.030Z,4.00
2018-06-22T23:22:56.701Z,3.80
2018-06-22T23:25:25.143Z,3.13
2018-06-22T23:27:53.556Z,3.17
2018-06-22T23:30:29.748Z,3.47
2018-06-22T23:32:58.347Z,4.00
2018-06-22T23:35:26.902Z,2.87
2018-06-22T23:37:56.442Z,3.20
2018-06-22T23:40:25.336Z,3.77
2018-06-22T23:42:54.797Z,4.57
2018-06-22T23:45:23.244Z,3.23
2018-06-22T23:47:51.649Z,3.73
2018-06-22T23:50:20.105Z,4.23
2018-06-22T23:52:48.556Z,3.40
2018-06-22T23:55:17.098Z,3.63
2018-06-22T23:57:45.521Z,4.03
